Accueil
METAR-TAF:

METAR-TAF

Aéroports :

Waterville, Maine, États-Unis

Waterville Robert LaFleur Airport

latitude: 44-32N, longitude: 069-41W, altitude: 101 m

Observation

Le bulletin a été fait il y a 26 minutes, à 03:56 UTC
Vent 8 kt de sud/sud-ouest
Température 1°C
Humidité 86%
Pression 1016 hPa
Visibilité: 16.1 km
Ciel couvert à une hauteur de 500 ft

METAR: KWVL 240356Z AUTO 20008KT 10SM OVC005 01/M01 A2999 RMK AO2 UPE39 SLP188 P0000 T00061006 FZRANO

Heure: 23:22 (04:22 UTC)


TAF: absent

Observations et prévisions météorologiques de plus de 4000 aéroports (messages METAR et TAF).

Les stations disponibles sont représentées par des disques jaunes et rouges sur la carte.

Passer la souris dessus pour voir le nom de la station.

Cliquer dessus pour voir les observations et prévisions météorologiques.

Pour changer de carte: cliquez sur les boutons verts avec une croix noire pour zoomer, sur le bouton vert avec un tiret pour effectuer un zoom arrière, ou sur les flèches vertes pour les cartes adjacentes.


METAR-TAF: